sensor_id;sensor_type;location;lat;lon;timestamp;pressure;altitude;pressure_sealevel;temperature;humidity
64908;BME280;51412;52.236;5.188;2022-08-23T00:02:04;101376.16;;;20.85;66.87
64908;BME280;51412;52.236;5.188;2022-08-23T00:04:34;101382.00;;;20.83;66.71
64908;BME280;51412;52.236;5.188;2022-08-23T00:07:02;101385.47;;;20.84;66.70
64908;BME280;51412;52.236;5.188;2022-08-23T00:09:29;101379.47;;;20.76;66.91
64908;BME280;51412;52.236;5.188;2022-08-23T00:12:05;101384.78;;;20.80;67.27
64908;BME280;51412;52.236;5.188;2022-08-23T00:14:33;101379.81;;;20.78;67.06
64908;BME280;51412;52.236;5.188;2022-08-23T00:17:03;101382.09;;;20.80;66.85
64908;BME280;51412;52.236;5.188;2022-08-23T00:19:31;101374.81;;;20.77;66.96
64908;BME280;51412;52.236;5.188;2022-08-23T00:21:57;101377.94;;;20.75;67.00
64908;BME280;51412;52.236;5.188;2022-08-23T00:24:24;101376.50;;;20.71;67.08
64908;BME280;51412;52.236;5.188;2022-08-23T00:26:59;101379.63;;;20.69;67.52
64908;BME280;51412;52.236;5.188;2022-08-23T00:29:28;101378.91;;;20.65;67.24
64908;BME280;51412;52.236;5.188;2022-08-23T00:31:55;101373.53;;;20.65;67.75
64908;BME280;51412;52.236;5.188;2022-08-23T00:34:24;101383.47;;;20.68;67.66
64908;BME280;51412;52.236;5.188;2022-08-23T00:36:51;101371.56;;;20.65;67.71
64908;BME280;51412;52.236;5.188;2022-08-23T00:39:18;101365.00;;;20.66;68.10
64908;BME280;51412;52.236;5.188;2022-08-23T00:41:46;101363.88;;;20.64;67.95
64908;BME280;51412;52.236;5.188;2022-08-23T00:44:16;101371.22;;;20.63;67.94
64908;BME280;51412;52.236;5.188;2022-08-23T00:47:01;101366.66;;;20.60;67.98
64908;BME280;51412;52.236;5.188;2022-08-23T00:49:53;101370.97;;;20.58;68.32
64908;BME280;51412;52.236;5.188;2022-08-23T00:52:24;101372.56;;;20.55;68.46
64908;BME280;51412;52.236;5.188;2022-08-23T00:54:53;101371.06;;;20.54;68.31
64908;BME280;51412;52.236;5.188;2022-08-23T00:57:21;101373.31;;;20.56;68.51
64908;BME280;51412;52.236;5.188;2022-08-23T00:59:47;101374.06;;;20.56;68.60
64908;BME280;51412;52.236;5.188;2022-08-23T01:02:14;101376.78;;;20.56;68.45
64908;BME280;51412;52.236;5.188;2022-08-23T01:04:44;101376.44;;;20.54;68.55
64908;BME280;51412;52.236;5.188;2022-08-23T01:07:22;101383.78;;;20.53;68.71
64908;BME280;51412;52.236;5.188;2022-08-23T01:09:54;101380.25;;;20.57;68.61
64908;BME280;51412;52.236;5.188;2022-08-23T01:12:26;101376.03;;;20.56;68.59
64908;BME280;51412;52.236;5.188;2022-08-23T01:14:58;101376.09;;;20.52;68.80
64908;BME280;51412;52.236;5.188;2022-08-23T01:17:28;101380.66;;;20.55;68.88
64908;BME280;51412;52.236;5.188;2022-08-23T01:20:03;101376.44;;;20.54;68.74
64908;BME280;51412;52.236;5.188;2022-08-23T01:22:36;101374.16;;;20.52;68.92
64908;BME280;51412;52.236;5.188;2022-08-23T01:25:09;101378.38;;;20.53;69.06
64908;BME280;51412;52.236;5.188;2022-08-23T01:27:37;101368.41;;;20.50;69.09
64908;BME280;51412;52.236;5.188;2022-08-23T01:30:05;101370.69;;;20.52;68.99
64908;BME280;51412;52.236;5.188;2022-08-23T01:32:33;101374.25;;;20.49;68.98
64908;BME280;51412;52.236;5.188;2022-08-23T01:35:03;101379.22;;;20.50;68.92
64908;BME280;51412;52.236;5.188;2022-08-23T01:37:30;101374.25;;;20.49;69.08
64908;BME280;51412;52.236;5.188;2022-08-23T01:39:57;101378.47;;;20.50;69.17
64908;BME280;51412;52.236;5.188;2022-08-23T01:42:24;101375.91;;;20.43;69.26
64908;BME280;51412;52.236;5.188;2022-08-23T01:44:51;101378.13;;;20.48;69.38
64908;BME280;51412;52.236;5.188;2022-08-23T01:47:18;101377.78;;;20.46;69.33
64908;BME280;51412;52.236;5.188;2022-08-23T01:49:44;101386.22;;;20.48;69.38
64908;BME280;51412;52.236;5.188;2022-08-23T01:52:11;101377.00;;;20.45;69.49
64908;BME280;51412;52.236;5.188;2022-08-23T01:54:39;101371.34;;;20.40;69.55
64908;BME280;51412;52.236;5.188;2022-08-23T01:57:07;101375.56;;;20.41;69.73
64908;BME280;51412;52.236;5.188;2022-08-23T01:59:36;101369.81;;;20.39;69.93
64908;BME280;51412;52.236;5.188;2022-08-23T02:02:03;101376.06;;;20.35;69.96
64908;BME280;51412;52.236;5.188;2022-08-23T02:04:29;101372.66;;;20.31;70.02
64908;BME280;51412;52.236;5.188;2022-08-23T02:06:56;101376.13;;;20.32;70.22
64908;BME280;51412;52.236;5.188;2022-08-23T02:09:22;101381.94;;;20.30;70.31
64908;BME280;51412;52.236;5.188;2022-08-23T02:11:49;101378.22;;;20.24;70.28
64908;BME280;51412;52.236;5.188;2022-08-23T02:14:17;101372.19;;;20.16;70.42
64908;BME280;51412;52.236;5.188;2022-08-23T02:16:47;101377.19;;;20.18;70.76
64908;BME280;51412;52.236;5.188;2022-08-23T02:19:14;101379.88;;;20.18;70.74
64908;BME280;51412;52.236;5.188;2022-08-23T02:21:42;101369.06;;;20.18;70.84
64908;BME280;51412;52.236;5.188;2022-08-23T02:24:10;101369.06;;;20.18;70.79
64908;BME280;51412;52.236;5.188;2022-08-23T02:26:41;101372.63;;;20.15;71.13
64908;BME280;51412;52.236;5.188;2022-08-23T02:29:08;101367.69;;;20.10;71.25
64908;BME280;51412;52.236;5.188;2022-08-23T02:31:35;101376.97;;;20.09;71.25
64908;BME280;51412;52.236;5.188;2022-08-23T02:34:02;101376.22;;;20.08;71.16
64908;BME280;51412;52.236;5.188;2022-08-23T02:36:30;101379.38;;;20.03;71.26
64908;BME280;51412;52.236;5.188;2022-08-23T02:38:57;101379.03;;;20.01;71.47
64908;BME280;51412;52.236;5.188;2022-08-23T02:41:24;101391.78;;;20.00;71.83
64908;BME280;51412;52.236;5.188;2022-08-23T02:43:51;101387.53;;;19.99;71.58
64908;BME280;51412;52.236;5.188;2022-08-23T02:46:18;101387.22;;;19.97;72.04
64908;BME280;51412;52.236;5.188;2022-08-23T02:48:45;101394.47;;;20.00;71.81
64908;BME280;51412;52.236;5.188;2022-08-23T02:51:13;101385.69;;;19.96;72.17
64908;BME280;51412;52.236;5.188;2022-08-23T02:53:44;101389.06;;;20.00;72.25
64908;BME280;51412;52.236;5.188;2022-08-23T02:56:11;101394.75;;;20.06;72.04
64908;BME280;51412;52.236;5.188;2022-08-23T02:58:38;101409.00;;;20.07;71.78
64908;BME280;51412;52.236;5.188;2022-08-23T03:01:05;101401.25;;;20.09;72.01
64908;BME280;51412;52.236;5.188;2022-08-23T03:03:39;101415.84;;;20.11;71.65
64908;BME280;51412;52.236;5.188;2022-08-23T03:06:06;101405.81;;;20.12;72.13
64908;BME280;51412;52.236;5.188;2022-08-23T03:08:34;101405.41;;;20.13;71.77
64908;BME280;51412;52.236;5.188;2022-08-23T03:11:00;101405.34;;;20.17;71.77
64908;BME280;51412;52.236;5.188;2022-08-23T03:13:27;101405.28;;;20.21;71.28
64908;BME280;51412;52.236;5.188;2022-08-23T03:15:53;101410.66;;;20.21;71.09
64908;BME280;51412;52.236;5.188;2022-08-23T03:18:20;101404.09;;;20.22;71.23
64908;BME280;51412;52.236;5.188;2022-08-23T03:20:46;101409.06;;;20.23;71.44
64908;BME280;51412;52.236;5.188;2022-08-23T03:23:13;101411.78;;;20.23;71.20
64908;BME280;51412;52.236;5.188;2022-08-23T03:25:41;101407.50;;;20.26;71.43
64908;BME280;51412;52.236;5.188;2022-08-23T03:28:07;101408.19;;;20.30;71.13
64908;BME280;51412;52.236;5.188;2022-08-23T03:30:34;101399.31;;;20.29;71.16
64908;BME280;51412;52.236;5.188;2022-08-23T03:33:01;101411.22;;;20.32;70.96
64908;BME280;51412;52.236;5.188;2022-08-23T03:35:28;101407.69;;;20.35;70.95
64908;BME280;51412;52.236;5.188;2022-08-23T03:37:54;101410.78;;;20.33;71.19
64908;BME280;51412;52.236;5.188;2022-08-23T03:40:21;101413.44;;;20.37;70.96
64908;BME280;51412;52.236;5.188;2022-08-23T03:42:50;101400.34;;;20.35;70.94
64908;BME280;51412;52.236;5.188;2022-08-23T03:45:16;101403.75;;;20.40;70.99
64908;BME280;51412;52.236;5.188;2022-08-23T03:47:43;101407.53;;;20.42;71.00
64908;BME280;51412;52.236;5.188;2022-08-23T03:50:10;101411.00;;;20.43;70.79
64908;BME280;51412;52.236;5.188;2022-08-23T03:52:37;101408.72;;;20.41;71.11
64908;BME280;51412;52.236;5.188;2022-08-23T03:55:05;101416.06;;;20.41;70.68
64908;BME280;51412;52.236;5.188;2022-08-23T03:57:31;101416.41;;;20.43;70.87
64908;BME280;51412;52.236;5.188;2022-08-23T04:00:00;101414.13;;;20.41;70.56
64908;BME280;51412;52.236;5.188;2022-08-23T04:02:27;101406.44;;;20.40;70.51
64908;BME280;51412;52.236;5.188;2022-08-23T04:04:53;101415.66;;;20.42;70.67
64908;BME280;51412;52.236;5.188;2022-08-23T04:07:22;101416.41;;;20.43;70.47
64908;BME280;51412;52.236;5.188;2022-08-23T04:09:48;101417.50;;;20.45;70.52
64908;BME280;51412;52.236;5.188;2022-08-23T04:12:15;101417.09;;;20.47;70.53
64908;BME280;51412;52.236;5.188;2022-08-23T04:14:41;101418.59;;;20.48;70.63
64908;BME280;51412;52.236;5.188;2022-08-23T04:17:11;101418.59;;;20.48;70.65
64908;BME280;51412;52.236;5.188;2022-08-23T04:19:37;101429.78;;;20.50;70.86
64908;BME280;51412;52.236;5.188;2022-08-23T04:22:04;101424.75;;;20.48;71.01
64908;BME280;51412;52.236;5.188;2022-08-23T04:24:30;101431.34;;;20.47;71.21
64908;BME280;51412;52.236;5.188;2022-08-23T04:26:57;101421.31;;;20.48;71.48
64908;BME280;51412;52.236;5.188;2022-08-23T04:29:23;101432.88;;;20.48;71.35
64908;BME280;51412;52.236;5.188;2022-08-23T04:31:50;101425.53;;;20.49;71.46
64908;BME280;51412;52.236;5.188;2022-08-23T04:34:17;101430.94;;;20.49;71.70
64908;BME280;51412;52.236;5.188;2022-08-23T04:36:44;101425.97;;;20.47;72.02
64908;BME280;51412;52.236;5.188;2022-08-23T04:39:11;101435.22;;;20.46;71.89
64908;BME280;51412;52.236;5.188;2022-08-23T04:41:37;101436.41;;;20.45;72.19
64908;BME280;51412;52.236;5.188;2022-08-23T04:44:21;101433.69;;;20.45;72.23
64908;BME280;51412;52.236;5.188;2022-08-23T04:46:48;101432.16;;;20.44;72.09
64908;BME280;51412;52.236;5.188;2022-08-23T04:49:15;101437.19;;;20.46;72.31
64908;BME280;51412;52.236;5.188;2022-08-23T04:51:43;101429.91;;;20.43;72.21
64908;BME280;51412;52.236;5.188;2022-08-23T04:54:10;101434.13;;;20.44;72.16
64908;BME280;51412;52.236;5.188;2022-08-23T04:56:37;101431.06;;;20.42;72.03
64908;BME280;51412;52.236;5.188;2022-08-23T04:59:04;101436.06;;;20.43;72.21
64908;BME280;51412;52.236;5.188;2022-08-23T05:01:31;101433.75;;;20.42;72.49
64908;BME280;51412;52.236;5.188;2022-08-23T05:03:57;101430.31;;;20.41;72.95
64908;BME280;51412;52.236;5.188;2022-08-23T05:06:24;101435.72;;;20.41;72.69
64908;BME280;51412;52.236;5.188;2022-08-23T05:08:52;101436.88;;;20.40;72.98
64908;BME280;51412;52.236;5.188;2022-08-23T05:11:19;101434.97;;;20.41;72.86
64908;BME280;51412;52.236;5.188;2022-08-23T05:13:45;101435.38;;;20.39;73.11
64908;BME280;51412;52.236;5.188;2022-08-23T05:16:12;101448.47;;;20.41;72.45
64908;BME280;51412;52.236;5.188;2022-08-23T05:18:39;101449.97;;;20.42;71.97
64908;BME280;51412;52.236;5.188;2022-08-23T05:21:06;101452.06;;;20.34;71.71
64908;BME280;51412;52.236;5.188;2022-08-23T05:23:33;101449.78;;;20.32;71.65
64908;BME280;51412;52.236;5.188;2022-08-23T05:26:01;101449.78;;;20.32;71.27
64908;BME280;51412;52.236;5.188;2022-08-23T05:28:30;101444.38;;;20.32;71.41
64908;BME280;51412;52.236;5.188;2022-08-23T05:30:59;101457.50;;;20.30;71.31
64908;BME280;51412;52.236;5.188;2022-08-23T05:33:27;101450.53;;;20.33;71.33
64908;BME280;51412;52.236;5.188;2022-08-23T05:35:54;101458.22;;;20.34;71.30
64908;BME280;51412;52.236;5.188;2022-08-23T05:38:21;101446.03;;;20.26;71.35
64908;BME280;51412;52.236;5.188;2022-08-23T05:40:48;101457.47;;;20.34;71.26
64908;BME280;51412;52.236;5.188;2022-08-23T05:43:17;101465.88;;;20.36;71.10
64908;BME280;51412;52.236;5.188;2022-08-23T05:45:45;101465.06;;;20.39;71.22
64908;BME280;51412;52.236;5.188;2022-08-23T05:48:12;101460.38;;;20.43;71.61
64908;BME280;51412;52.236;5.188;2022-08-23T05:50:40;101455.72;;;20.44;71.61
64908;BME280;51412;52.236;5.188;2022-08-23T05:53:08;101464.78;;;20.53;71.99
64908;BME280;51412;52.236;5.188;2022-08-23T05:55:35;101455.88;;;20.57;71.74
64908;BME280;51412;52.236;5.188;2022-08-23T05:58:02;101459.66;;;20.59;70.93
64908;BME280;51412;52.236;5.188;2022-08-23T06:00:30;101461.88;;;20.64;70.65
64908;BME280;51412;52.236;5.188;2022-08-23T06:02:57;101460.69;;;20.65;71.18
64908;BME280;51412;52.236;5.188;2022-08-23T06:05:23;101469.09;;;20.71;70.87
64908;BME280;51412;52.236;5.188;2022-08-23T06:07:50;101462.94;;;20.71;70.50
64908;BME280;51412;52.236;5.188;2022-08-23T06:10:16;101467.00;;;20.79;70.55
64908;BME280;51412;52.236;5.188;2022-08-23T06:12:45;101471.16;;;20.83;70.59
64908;BME280;51412;52.236;5.188;2022-08-23T06:15:15;101478.75;;;20.89;70.16
64908;BME280;51412;52.236;5.188;2022-08-23T06:17:43;101476.31;;;20.94;70.09
64908;BME280;51412;52.236;5.188;2022-08-23T06:20:09;101476.63;;;21.00;70.63
64908;BME280;51412;52.236;5.188;2022-08-23T06:22:36;101475.34;;;21.05;70.36
64908;BME280;51412;52.236;5.188;2022-08-23T06:25:03;101466.06;;;21.06;70.09
64908;BME280;51412;52.236;5.188;2022-08-23T06:27:30;101472.81;;;21.14;69.74
64908;BME280;51412;52.236;5.188;2022-08-23T06:29:56;101475.19;;;21.12;69.34
64908;BME280;51412;52.236;5.188;2022-08-23T06:32:23;101475.09;;;21.15;69.76
64908;BME280;51412;52.236;5.188;2022-08-23T06:34:50;101482.78;;;21.17;69.16
64908;BME280;51412;52.236;5.188;2022-08-23T06:37:17;101478.91;;;21.18;69.24
64908;BME280;51412;52.236;5.188;2022-08-23T06:39:43;101468.78;;;21.22;69.26
64908;BME280;51412;52.236;5.188;2022-08-23T06:42:11;101473.69;;;21.27;69.15
64908;BME280;51412;52.236;5.188;2022-08-23T06:44:38;101472.91;;;21.27;68.76
64908;BME280;51412;52.236;5.188;2022-08-23T06:47:06;101480.09;;;21.33;68.44
64908;BME280;51412;52.236;5.188;2022-08-23T06:49:33;101474.25;;;21.35;68.10
64908;BME280;51412;52.236;5.188;2022-08-23T06:52:03;101476.81;;;21.42;67.71
64908;BME280;51412;52.236;5.188;2022-08-23T06:54:31;101469.72;;;21.48;67.47
64908;BME280;51412;52.236;5.188;2022-08-23T06:56:59;101475.75;;;21.56;67.14
64908;BME280;51412;52.236;5.188;2022-08-23T06:59:26;101485.56;;;21.66;67.41
64908;BME280;51412;52.236;5.188;2022-08-23T07:01:55;101471.50;;;21.72;66.70
64908;BME280;51412;52.236;5.188;2022-08-23T07:04:24;101476.31;;;21.80;66.89
64908;BME280;51412;52.236;5.188;2022-08-23T07:06:51;101476.91;;;21.88;65.86
64908;BME280;51412;52.236;5.188;2022-08-23T07:09:22;101476.63;;;21.99;66.06
64908;BME280;51412;52.236;5.188;2022-08-23T07:11:51;101481.41;;;22.08;65.48
64908;BME280;51412;52.236;5.188;2022-08-23T07:14:20;101480.28;;;22.21;65.72
64908;BME280;51412;52.236;5.188;2022-08-23T07:16:49;101484.22;;;22.33;65.05
64908;BME280;51412;52.236;5.188;2022-08-23T07:19:18;101487.31;;;22.48;64.99
64908;BME280;51412;52.236;5.188;2022-08-23T07:21:45;101493.09;;;22.63;64.13
64908;BME280;51412;52.236;5.188;2022-08-23T07:24:12;101493.00;;;22.80;63.59
64908;BME280;51412;52.236;5.188;2022-08-23T07:26:42;101496.19;;;22.91;62.69
64908;BME280;51412;52.236;5.188;2022-08-23T07:29:11;101492.72;;;23.03;62.63
64908;BME280;51412;52.236;5.188;2022-08-23T07:31:40;101491.69;;;23.14;62.35
64908;BME280;51412;52.236;5.188;2022-08-23T07:34:08;101500.88;;;23.29;61.23
64908;BME280;51412;52.236;5.188;2022-08-23T07:36:37;101509.75;;;23.43;61.38
64908;BME280;51412;52.236;5.188;2022-08-23T07:39:05;101499.88;;;23.49;60.82
64908;BME280;51412;52.236;5.188;2022-08-23T07:41:33;101514.63;;;23.61;59.46
64908;BME280;51412;52.236;5.188;2022-08-23T07:44:04;101511.56;;;23.71;58.30
64908;BME280;51412;52.236;5.188;2022-08-23T07:46:32;101520.53;;;23.81;57.04
64908;BME280;51412;52.236;5.188;2022-08-23T07:49:00;101511.53;;;23.84;56.11
64908;BME280;51412;52.236;5.188;2022-08-23T07:51:29;101516.97;;;23.84;55.37
64908;BME280;51412;52.236;5.188;2022-08-23T07:53:56;101524.59;;;23.90;54.98
64908;BME280;51412;52.236;5.188;2022-08-23T07:56:23;101514.47;;;23.90;54.73
64908;BME280;51412;52.236;5.188;2022-08-23T07:58:49;101528.69;;;23.94;54.74
64908;BME280;51412;52.236;5.188;2022-08-23T08:01:21;101526.16;;;24.00;54.57
64908;BME280;51412;52.236;5.188;2022-08-23T08:03:49;101515.28;;;24.13;54.22
64908;BME280;51412;52.236;5.188;2022-08-23T08:06:20;101520.00;;;24.21;53.30
64908;BME280;51412;52.236;5.188;2022-08-23T08:08:48;101530.50;;;24.32;52.84
64908;BME280;51412;52.236;5.188;2022-08-23T08:11:19;101527.41;;;24.43;52.84
64908;BME280;51412;52.236;5.188;2022-08-23T08:13:47;101529.44;;;24.52;52.17
64908;BME280;51412;52.236;5.188;2022-08-23T08:16:21;101533.53;;;24.57;52.81
64908;BME280;51412;52.236;5.188;2022-08-23T08:18:49;101537.25;;;24.72;52.89
64908;BME280;51412;52.236;5.188;2022-08-23T08:21:17;101542.63;;;24.85;52.27
64908;BME280;51412;52.236;5.188;2022-08-23T08:23:43;101542.84;;;25.00;52.17
64908;BME280;51412;52.236;5.188;2022-08-23T08:26:10;101543.63;;;25.10;51.70
64908;BME280;51412;52.236;5.188;2022-08-23T08:28:37;101544.13;;;25.17;52.42
64908;BME280;51412;52.236;5.188;2022-08-23T08:31:07;101548.84;;;25.26;51.80
64908;BME280;51412;52.236;5.188;2022-08-23T08:33:35;101544.06;;;25.39;52.35
64908;BME280;51412;52.236;5.188;2022-08-23T08:36:03;101543.41;;;25.67;53.29
64908;BME280;51412;52.236;5.188;2022-08-23T08:38:29;101541.63;;;25.92;52.70
64908;BME280;51412;52.236;5.188;2022-08-23T08:41:01;101549.19;;;26.15;51.91
64908;BME280;51412;52.236;5.188;2022-08-23T08:46:21;101558.72;;;26.48;50.69
64908;BME280;51412;52.236;5.188;2022-08-23T08:48:52;101558.41;;;26.55;50.44
64908;BME280;51412;52.236;5.188;2022-08-23T08:51:32;101559.91;;;26.65;50.45
64908;BME280;51412;52.236;5.188;2022-08-23T08:54:05;101557.50;;;26.77;50.34
64908;BME280;51412;52.236;5.188;2022-08-23T08:56:36;101553.81;;;26.89;49.01
64908;BME280;51412;52.236;5.188;2022-08-23T08:59:05;101552.72;;;26.96;48.09
64908;BME280;51412;52.236;5.188;2022-08-23T09:01:35;101553.31;;;27.00;48.41
64908;BME280;51412;52.236;5.188;2022-08-23T09:04:05;101553.13;;;27.03;48.44
64908;BME280;51412;52.236;5.188;2022-08-23T09:06:35;101555.88;;;27.03;48.15
64908;BME280;51412;52.236;5.188;2022-08-23T09:09:17;101558.00;;;26.99;48.17
64908;BME280;51412;52.236;5.188;2022-08-23T09:11:56;101558.59;;;27.03;48.93
64908;BME280;51412;52.236;5.188;2022-08-23T09:14:41;101553.84;;;27.22;48.49
64908;BME280;51412;52.236;5.188;2022-08-23T09:17:17;101565.75;;;27.34;47.94
64908;BME280;51412;52.236;5.188;2022-08-23T09:19:48;101563.63;;;27.38;48.46
64908;BME280;51412;52.236;5.188;2022-08-23T09:22:20;101566.19;;;27.42;47.50
64908;BME280;51412;52.236;5.188;2022-08-23T09:24:50;101568.00;;;27.36;46.27
64908;BME280;51412;52.236;5.188;2022-08-23T09:27:17;101565.00;;;27.34;46.51
64908;BME280;51412;52.236;5.188;2022-08-23T09:29:53;101572.72;;;27.35;47.29
64908;BME280;51412;52.236;5.188;2022-08-23T09:32:30;101566.34;;;27.38;46.31
64908;BME280;51412;52.236;5.188;2022-08-23T09:35:09;101565.75;;;27.34;46.37
64908;BME280;51412;52.236;5.188;2022-08-23T09:37:49;101565.75;;;27.34;46.33
64908;BME280;51412;52.236;5.188;2022-08-23T09:40:19;101560.28;;;27.34;46.02
64908;BME280;51412;52.236;5.188;2022-08-23T09:43:03;101554.53;;;27.42;47.14
64908;BME280;51412;52.236;5.188;2022-08-23T09:45:32;101548.94;;;27.60;46.85
64908;BME280;51412;52.236;5.188;2022-08-23T09:47:59;101552.59;;;27.81;45.32
64908;BME280;51412;52.236;5.188;2022-08-23T09:50:30;101545.97;;;27.97;44.55
64908;BME280;51412;52.236;5.188;2022-08-23T09:52:59;101552.16;;;28.22;45.32
64908;BME280;51412;52.236;5.188;2022-08-23T09:55:31;101547.34;;;28.47;43.59
64908;BME280;51412;52.236;5.188;2022-08-23T09:57:59;101547.56;;;28.58;43.54
64908;BME280;51412;52.236;5.188;2022-08-23T10:00:28;101554.34;;;28.78;43.32
64908;BME280;51412;52.236;5.188;2022-08-23T10:03:21;101547.03;;;29.04;43.13
64908;BME280;51412;52.236;5.188;2022-08-23T10:05:50;101544.53;;;29.36;42.72
64908;BME280;51412;52.236;5.188;2022-08-23T10:08:21;101542.34;;;29.61;42.05
64908;BME280;51412;52.236;5.188;2022-08-23T10:10:51;101541.59;;;29.81;41.13
64908;BME280;51412;52.236;5.188;2022-08-23T10:13:18;101537.56;;;29.97;41.16
64908;BME280;51412;52.236;5.188;2022-08-23T10:15:53;101538.69;;;30.11;40.73
64908;BME280;51412;52.236;5.188;2022-08-23T10:18:33;101539.84;;;30.31;39.51
64908;BME280;51412;52.236;5.188;2022-08-23T10:21:06;101541.69;;;30.39;40.84
64908;BME280;51412;52.236;5.188;2022-08-23T10:23:43;101536.19;;;30.39;39.23
64908;BME280;51412;52.236;5.188;2022-08-23T10:26:21;101541.41;;;30.37;39.27
64908;BME280;51412;52.236;5.188;2022-08-23T10:28:54;101534.66;;;30.33;39.08
64908;BME280;51412;52.236;5.188;2022-08-23T10:31:46;101524.31;;;30.22;39.86
64908;BME280;51412;52.236;5.188;2022-08-23T10:34:38;101532.81;;;30.24;40.05
64908;BME280;51412;52.236;5.188;2022-08-23T10:37:21;101526.31;;;30.21;39.75
64908;BME280;51412;52.236;5.188;2022-08-23T10:39:57;101511.69;;;30.30;40.14
64908;BME280;51412;52.236;5.188;2022-08-23T10:42:33;101516.03;;;30.43;39.66
64908;BME280;51412;52.236;5.188;2022-08-23T10:45:07;101511.13;;;30.52;39.68
64908;BME280;51412;52.236;5.188;2022-08-23T10:47:40;101504.44;;;30.59;40.58
64908;BME280;51412;52.236;5.188;2022-08-23T10:50:15;101509.56;;;30.78;39.13
64908;BME280;51412;52.236;5.188;2022-08-23T10:52:49;101503.59;;;30.79;38.13
64908;BME280;51412;52.236;5.188;2022-08-23T10:55:23;101506.31;;;30.73;38.78
64908;BME280;51412;52.236;5.188;2022-08-23T10:58:01;101518.81;;;30.80;38.89
64908;BME280;51412;52.236;5.188;2022-08-23T11:00:30;101517.75;;;30.66;38.95
64908;BME280;51412;52.236;5.188;2022-08-23T11:03:08;101522.94;;;30.64;38.68
64908;BME280;51412;52.236;5.188;2022-08-23T11:05:42;101518.66;;;30.57;39.05
64908;BME280;51412;52.236;5.188;2022-08-23T11:08:10;101513.53;;;30.71;39.76
64908;BME280;51412;52.236;5.188;2022-08-23T11:10:44;101512.34;;;30.83;38.78
64908;BME280;51412;52.236;5.188;2022-08-23T11:13:20;101516.91;;;30.92;39.98
64908;BME280;51412;52.236;5.188;2022-08-23T11:15:55;101512.47;;;31.00;38.48
64908;BME280;51412;52.236;5.188;2022-08-23T11:18:41;101514.16;;;30.92;38.69
64908;BME280;51412;52.236;5.188;2022-08-23T11:24:33;101516.19;;;30.60;39.27
64908;BME280;51412;52.236;5.188;2022-08-23T11:27:31;101519.22;;;30.67;40.09
64908;BME280;51412;52.236;5.188;2022-08-23T11:32:59;101522.59;;;30.51;39.46
64908;BME280;51412;52.236;5.188;2022-08-23T11:35:36;101527.44;;;30.35;39.48
64908;BME280;51412;52.236;5.188;2022-08-23T11:38:04;101522.31;;;30.22;39.54
64908;BME280;51412;52.236;5.188;2022-08-23T11:43:34;101523.03;;;29.91;40.63
64908;BME280;51412;52.236;5.188;2022-08-23T11:46:26;101530.28;;;29.94;40.83
64908;BME280;51412;52.236;5.188;2022-08-23T11:49:02;101526.47;;;30.12;40.00
64908;BME280;51412;52.236;5.188;2022-08-23T11:51:40;101522.56;;;30.19;40.46
64908;BME280;51412;52.236;5.188;2022-08-23T11:54:24;101530.31;;;30.20;40.27
64908;BME280;51412;52.236;5.188;2022-08-23T11:57:03;101529.47;;;30.14;39.80
64908;BME280;51412;52.236;5.188;2022-08-23T12:02:39;101526.66;;;30.03;40.52
64908;BME280;51412;52.236;5.188;2022-08-23T12:05:20;101527.13;;;30.01;40.59
64908;BME280;51412;52.236;5.188;2022-08-23T12:07:52;101534.59;;;30.01;40.40
64908;BME280;51412;52.236;5.188;2022-08-23T12:16:31;101542.59;;;30.04;42.46
64908;BME280;51412;52.236;5.188;2022-08-23T12:19:02;101542.06;;;30.00;42.21
64908;BME280;51412;52.236;5.188;2022-08-23T12:21:33;101533.78;;;29.95;42.91
64908;BME280;51412;52.236;5.188;2022-08-23T12:24:14;101542.22;;;29.91;42.92
64908;BME280;51412;52.236;5.188;2022-08-23T12:26:47;101533.13;;;29.85;42.37
64908;BME280;51412;52.236;5.188;2022-08-23T12:29:26;101531.84;;;29.80;42.42
64908;BME280;51412;52.236;5.188;2022-08-23T12:32:01;101531.84;;;29.80;42.58
64908;BME280;51412;52.236;5.188;2022-08-23T12:34:36;101531.94;;;29.86;42.09
64908;BME280;51412;52.236;5.188;2022-08-23T12:37:15;101538.41;;;30.09;41.40
64908;BME280;51412;52.236;5.188;2022-08-23T12:39:49;101536.31;;;30.24;40.53
64908;BME280;51412;52.236;5.188;2022-08-23T12:42:17;101537.09;;;30.31;40.96
64908;BME280;51412;52.236;5.188;2022-08-23T12:44:59;101535.09;;;30.26;39.56
64908;BME280;51412;52.236;5.188;2022-08-23T12:47:26;101539.84;;;30.31;39.42
64908;BME280;51412;52.236;5.188;2022-08-23T12:49:55;101528.47;;;30.38;39.91
64908;BME280;51412;52.236;5.188;2022-08-23T12:52:24;101539.06;;;30.51;39.72
64908;BME280;51412;52.236;5.188;2022-08-23T12:54:52;101522.91;;;30.59;39.83
64908;BME280;51412;52.236;5.188;2022-08-23T12:57:28;101524.53;;;30.77;39.76
64908;BME280;51412;52.236;5.188;2022-08-23T13:00:04;101528.09;;;30.88;38.91
64908;BME280;51412;52.236;5.188;2022-08-23T13:02:34;101517.94;;;30.95;39.10
64908;BME280;51412;52.236;5.188;2022-08-23T13:05:05;101520.25;;;31.07;38.75
64908;BME280;51412;52.236;5.188;2022-08-23T13:07:35;101520.78;;;31.12;38.42
64908;BME280;51412;52.236;5.188;2022-08-23T13:10:03;101525.75;;;31.07;39.13
64908;BME280;51412;52.236;5.188;2022-08-23T13:12:30;101531.69;;;31.00;38.85
64908;BME280;51412;52.236;5.188;2022-08-23T13:14:58;101531.38;;;30.93;39.27
64908;BME280;51412;52.236;5.188;2022-08-23T13:17:33;101535.38;;;30.97;39.45
64908;BME280;51412;52.236;5.188;2022-08-23T13:20:17;101526.19;;;31.00;39.63
64908;BME280;51412;52.236;5.188;2022-08-23T13:23:00;101530.72;;;31.03;39.51
64908;BME280;51412;52.236;5.188;2022-08-23T13:25:28;101528.59;;;30.87;39.83
64908;BME280;51412;52.236;5.188;2022-08-23T13:27:57;101524.09;;;30.84;39.83